PWSweather.com
Personal Weather Stations
Station Observations

SugarloafSugarloaf, PA 18249

Lat: 41.0126685, Lon: -76.1082041

Elevation: 1030

Station Type: WS-2080

https://www.wunderground.com/personal-weather-station/dashboard?ID=KPASUGAR3#

Latest ConditionsUpdated 6:00:03 AM EST Thursday, Nov 23, 2017
Currently Today's Max Today's Min Today's Average
Temperature 23.8°F-4.6°C 27.8°F-2.3°C 23.6°F-4.7°C 25.6°F-3.6°C
Dew Point 10.4°F-12.0°C 13.2°F-10.4°C 10.4°F-12.0°C 11.1°F-11.6°C
Winds Calm Calm 3.8 mph NW6.1 kmh NW - 0.8 mph 1.3 kmh
Wind Gusts 9.2 mph14.8 kmh 9.2 mph14.8 kmh - -
Humidity 56% 57% 51% 54%
Pressure 30.37 in1028.4 mb 30.50 in1032.8 mb 30.37 in1028.4 mb -
Hour Temp Dew Point Humidity Winds Wind Gusts Pressure Precip Precip Rate Daily Precip Total
06:00 AM 23.8°F-4.6°C 10.4°F-12.0°C 56% Calm Calm 9.2 mph14.8 kmh 30.37 in1028.4 mb 0.00 in0.0 mm 0.00 in0.0 mm 0.00 in0.0 mm
05:50 AM 23.6°F-4.7°C 10.7°F-11.8°C 57% 0.7 mph WSW1.1 kmh WSW 2.2 mph3.5 kmh 30.42 in1030.1 mb 0.00 in0.0 mm 0.00 in0.0 mm 0.00 in0.0 mm
05:40 AM 23.8°F-4.6°C 10.4°F-12.0°C 56% Calm Calm 3.8 mph6.1 kmh 30.46 in1031.5 mb 0.00 in0.0 mm 0.00 in0.0 mm 0.00 in0.0 mm
05:30 AM 24.0°F-4.4°C 10.6°F-11.9°C 56% 1.6 mph NE2.6 kmh NE 3.8 mph6.1 kmh 30.49 in1032.5 mb 0.00 in0.0 mm 0.00 in0.0 mm 0.00 in0.0 mm
05:20 AM 23.8°F-4.6°C 10.4°F-12.0°C 56% Calm Calm 3.8 mph6.1 kmh 30.50 in1032.8 mb 0.00 in0.0 mm 0.00 in0.0 mm 0.00 in0.0 mm
05:10 AM 24.2°F-4.3°C 10.8°F-11.8°C 56% Calm Calm 3.8 mph6.1 kmh 30.50 in1032.8 mb 0.00 in0.0 mm 0.00 in0.0 mm 0.00 in0.0 mm
05:00 AM 24.5°F-4.2°C 10.7°F-11.8°C 55% Calm Calm 2.2 mph3.5 kmh 30.50 in1032.8 mb 0.00 in0.0 mm 0.00 in0.0 mm 0.00 in0.0 mm
04:50 AM 24.5°F-4.2°C 10.7°F-11.8°C 55% Calm Calm 3.1 mph5.0 kmh 30.49 in1032.5 mb 0.00 in0.0 mm 0.00 in0.0 mm 0.00 in0.0 mm
04:40 AM 24.9°F-3.9°C 10.6°F-11.9°C 54% 0.7 mph SE1.1 kmh SE 3.1 mph5.0 kmh 30.48 in1032.2 mb 0.00 in0.0 mm 0.00 in0.0 mm 0.00 in0.0 mm
04:30 AM 25.1°F-3.8°C 11.2°F-11.6°C 55% 0.7 mph NE1.1 kmh NE 8.3 mph13.4 kmh 30.47 in1031.8 mb 0.00 in0.0 mm 0.00 in0.0 mm 0.00 in0.0 mm
04:20 AM 24.9°F-3.9°C 11.0°F-11.7°C 55% 0.7 mph SE1.1 kmh SE 1.6 mph2.6 kmh 30.47 in1031.8 mb 0.00 in0.0 mm 0.00 in0.0 mm 0.00 in0.0 mm
04:10 AM 25.2°F-3.8°C 11.4°F-11.4°C 55% 0.7 mph SSW1.1 kmh SSW 4.5 mph7.2 kmh 30.47 in1031.8 mb 0.00 in0.0 mm 0.00 in0.0 mm 0.00 in0.0 mm
04:00 AM 25.4°F-3.7°C 11.1°F-11.6°C 54% 2.2 mph W3.5 kmh W 6.0 mph9.7 kmh 30.46 in1031.5 mb 0.00 in0.0 mm 0.00 in0.0 mm 0.00 in0.0 mm
03:50 AM 24.9°F-3.9°C 11.0°F-11.7°C 55% 0.7 mph WNW1.1 kmh WNW 6.0 mph9.7 kmh 30.46 in1031.5 mb 0.00 in0.0 mm 0.00 in0.0 mm 0.00 in0.0 mm
03:40 AM 24.7°F-4.1°C 10.5°F-11.9°C 54% 0.7 mph ESE1.1 kmh ESE 2.2 mph3.5 kmh 30.45 in1031.2 mb 0.00 in0.0 mm 0.00 in0.0 mm 0.00 in0.0 mm
03:30 AM 25.2°F-3.8°C 10.6°F-11.9°C 53% 0.7 mph E1.1 kmh E 5.4 mph8.7 kmh 30.45 in1031.2 mb 0.00 in0.0 mm 0.00 in0.0 mm 0.00 in0.0 mm
03:20 AM 25.4°F-3.7°C 11.1°F-11.6°C 54% Calm Calm 3.8 mph6.1 kmh 30.45 in1031.2 mb 0.00 in0.0 mm 0.00 in0.0 mm 0.00 in0.0 mm
03:10 AM 25.4°F-3.7°C 11.1°F-11.6°C 54% Calm Calm 2.2 mph3.5 kmh 30.44 in1030.8 mb 0.00 in0.0 mm 0.00 in0.0 mm 0.00 in0.0 mm
03:00 AM 25.6°F-3.6°C 10.5°F-11.9°C 52% Calm Calm 3.8 mph6.1 kmh 30.44 in1030.8 mb 0.00 in0.0 mm 0.00 in0.0 mm 0.00 in0.0 mm
02:50 AM 25.8°F-3.4°C 10.6°F-11.9°C 52% 0.7 mph W1.1 kmh W 3.1 mph5.0 kmh 30.44 in1030.8 mb 0.00 in0.0 mm 0.00 in0.0 mm 0.00 in0.0 mm
02:40 AM 26.0°F-3.3°C 10.8°F-11.8°C 52% Calm Calm 4.5 mph7.2 kmh 30.44 in1030.8 mb 0.00 in0.0 mm 0.00 in0.0 mm 0.00 in0.0 mm
02:30 AM 26.0°F-3.3°C 10.8°F-11.8°C 52% 3.1 mph W5.0 kmh W 4.5 mph7.2 kmh 30.43 in1030.5 mb 0.00 in0.0 mm 0.00 in0.0 mm 0.00 in0.0 mm
02:20 AM 26.0°F-3.3°C 10.8°F-11.8°C 52% Calm Calm 2.2 mph3.5 kmh 30.43 in1030.5 mb 0.00 in0.0 mm 0.00 in0.0 mm 0.00 in0.0 mm
02:10 AM 26.1°F-3.3°C 11.0°F-11.7°C 52% Calm Calm 2.2 mph3.5 kmh 30.43 in1030.5 mb 0.00 in0.0 mm 0.00 in0.0 mm 0.00 in0.0 mm
02:00 AM 26.0°F-3.3°C 10.8°F-11.8°C 52% 0.7 mph WSW1.1 kmh WSW 4.5 mph7.2 kmh 30.43 in1030.5 mb 0.00 in0.0 mm 0.00 in0.0 mm 0.00 in0.0 mm
01:50 AM 26.0°F-3.3°C 11.2°F-11.6°C 53% 0.7 mph W1.1 kmh W 3.8 mph6.1 kmh 30.42 in1030.1 mb 0.00 in0.0 mm 0.00 in0.0 mm 0.00 in0.0 mm
01:40 AM 26.3°F-3.2°C 11.1°F-11.6°C 52% Calm Calm 2.2 mph3.5 kmh 30.41 in1029.8 mb 0.00 in0.0 mm 0.00 in0.0 mm 0.00 in0.0 mm
01:30 AM 26.5°F-3.1°C 10.9°F-11.7°C 51% Calm Calm 2.2 mph3.5 kmh 30.41 in1029.8 mb 0.00 in0.0 mm 0.00 in0.0 mm 0.00 in0.0 mm
01:20 AM 26.7°F-2.9°C 11.5°F-11.4°C 52% Calm Calm 1.6 mph2.6 kmh 30.40 in1029.5 mb 0.00 in0.0 mm 0.00 in0.0 mm 0.00 in0.0 mm
01:10 AM 26.9°F-2.8°C 11.2°F-11.6°C 51% Calm Calm 4.5 mph7.2 kmh 30.39 in1029.1 mb 0.00 in0.0 mm 0.00 in0.0 mm 0.00 in0.0 mm
01:00 AM 27.0°F-2.8°C 11.4°F-11.4°C 51% 3.1 mph W5.0 kmh W 4.5 mph7.2 kmh 30.38 in1028.8 mb 0.00 in0.0 mm 0.00 in0.0 mm 0.00 in0.0 mm
12:50 AM 27.0°F-2.8°C 11.4°F-11.4°C 51% 3.1 mph WNW5.0 kmh WNW 6.9 mph11.1 kmh 30.38 in1028.8 mb 0.00 in0.0 mm 0.00 in0.0 mm 0.00 in0.0 mm
12:40 AM 27.2°F-2.7°C 11.5°F-11.4°C 51% 1.6 mph SSE2.6 kmh SSE 7.6 mph12.2 kmh 30.38 in1028.8 mb 0.00 in0.0 mm 0.00 in0.0 mm 0.00 in0.0 mm
12:30 AM 27.4°F-2.6°C 13.0°F-10.6°C 54% 3.8 mph NW6.1 kmh NW 7.6 mph12.2 kmh 30.38 in1028.8 mb 0.00 in0.0 mm 0.00 in0.0 mm 0.00 in0.0 mm
12:20 AM 27.6°F-2.4°C 13.2°F-10.4°C 54% 0.7 mph NW1.1 kmh NW 3.1 mph5.0 kmh 30.37 in1028.4 mb 0.00 in0.0 mm 0.00 in0.0 mm 0.00 in0.0 mm
12:10 AM 27.8°F-2.3°C 12.9°F-10.6°C 53% Calm Calm 5.4 mph8.7 kmh 30.38 in1028.8 mb 0.00 in0.0 mm 0.00 in0.0 mm 0.00 in0.0 mm
12:00 AM 27.8°F-2.3°C 12.9°F-10.6°C 53% 1.6 mph W2.6 kmh W 5.4 mph8.7 kmh 30.37 in1028.4 mb 0.00 in0.0 mm 0.00 in0.0 mm 0.00 in0.0 mm